sensor_id;sensor_type;location;lat;lon;timestamp;P1;durP1;ratioP1;P2;durP2;ratioP2
11004;SDS011;5555;59.622;16.556;2024-02-28T00:01:26;3.50;;;3.20;;
11004;SDS011;5555;59.622;16.556;2024-02-28T00:03:52;4.07;;;3.67;;
11004;SDS011;5555;59.622;16.556;2024-02-28T00:06:18;4.47;;;3.97;;
11004;SDS011;5555;59.622;16.556;2024-02-28T00:08:44;4.13;;;3.73;;
11004;SDS011;5555;59.622;16.556;2024-02-28T00:11:10;3.30;;;3.10;;
11004;SDS011;5555;59.622;16.556;2024-02-28T00:13:35;4.00;;;3.70;;
11004;SDS011;5555;59.622;16.556;2024-02-28T00:16:01;4.23;;;3.83;;
11004;SDS011;5555;59.622;16.556;2024-02-28T00:18:27;4.17;;;3.77;;
11004;SDS011;5555;59.622;16.556;2024-02-28T00:20:52;3.90;;;3.60;;
11004;SDS011;5555;59.622;16.556;2024-02-28T00:23:19;4.90;;;4.50;;
11004;SDS011;5555;59.622;16.556;2024-02-28T00:25:45;5.87;;;4.10;;
11004;SDS011;5555;59.622;16.556;2024-02-28T00:28:11;4.33;;;3.93;;
11004;SDS011;5555;59.622;16.556;2024-02-28T00:30:37;3.90;;;3.60;;
11004;SDS011;5555;59.622;16.556;2024-02-28T00:33:02;3.77;;;3.47;;
11004;SDS011;5555;59.622;16.556;2024-02-28T00:35:31;4.73;;;4.27;;
11004;SDS011;5555;59.622;16.556;2024-02-28T00:37:58;3.80;;;3.40;;
11004;SDS011;5555;59.622;16.556;2024-02-28T00:40:24;4.23;;;3.60;;
11004;SDS011;5555;59.622;16.556;2024-02-28T00:42:50;4.30;;;4.00;;
11004;SDS011;5555;59.622;16.556;2024-02-28T00:45:16;4.07;;;3.40;;
11004;SDS011;5555;59.622;16.556;2024-02-28T00:47:42;4.30;;;3.80;;
11004;SDS011;5555;59.622;16.556;2024-02-28T00:50:08;4.70;;;4.30;;
11004;SDS011;5555;59.622;16.556;2024-02-28T00:52:34;5.10;;;4.30;;
11004;SDS011;5555;59.622;16.556;2024-02-28T00:55:00;4.07;;;3.70;;
11004;SDS011;5555;59.622;16.556;2024-02-28T00:57:26;4.53;;;4.10;;
11004;SDS011;5555;59.622;16.556;2024-02-28T00:59:51;5.03;;;3.93;;
11004;SDS011;5555;59.622;16.556;2024-02-28T01:02:19;4.30;;;3.90;;
11004;SDS011;5555;59.622;16.556;2024-02-28T01:04:45;3.80;;;3.50;;
11004;SDS011;5555;59.622;16.556;2024-02-28T01:07:11;4.20;;;3.80;;
11004;SDS011;5555;59.622;16.556;2024-02-28T01:09:37;4.30;;;3.90;;
11004;SDS011;5555;59.622;16.556;2024-02-28T01:12:02;4.03;;;3.73;;
11004;SDS011;5555;59.622;16.556;2024-02-28T01:14:28;4.27;;;3.70;;
11004;SDS011;5555;59.622;16.556;2024-02-28T01:16:54;4.40;;;3.80;;
11004;SDS011;5555;59.622;16.556;2024-02-28T01:19:19;4.07;;;3.77;;
11004;SDS011;5555;59.622;16.556;2024-02-28T01:21:45;4.57;;;4.17;;
11004;SDS011;5555;59.622;16.556;2024-02-28T01:24:11;4.40;;;4.10;;
11004;SDS011;5555;59.622;16.556;2024-02-28T01:26:36;4.30;;;3.90;;
11004;SDS011;5555;59.622;16.556;2024-02-28T01:29:02;3.80;;;3.50;;
11004;SDS011;5555;59.622;16.556;2024-02-28T01:31:28;3.87;;;3.50;;
11004;SDS011;5555;59.622;16.556;2024-02-28T01:33:53;4.40;;;4.10;;
11004;SDS011;5555;59.622;16.556;2024-02-28T01:36:20;4.17;;;3.57;;
11004;SDS011;5555;59.622;16.556;2024-02-28T01:38:46;4.87;;;4.13;;
11004;SDS011;5555;59.622;16.556;2024-02-28T01:41:12;3.90;;;3.60;;
11004;SDS011;5555;59.622;16.556;2024-02-28T01:43:37;4.30;;;3.90;;
11004;SDS011;5555;59.622;16.556;2024-02-28T01:46:04;4.00;;;3.70;;
11004;SDS011;5555;59.622;16.556;2024-02-28T01:48:45;4.10;;;3.70;;
11004;SDS011;5555;59.622;16.556;2024-02-28T01:51:11;4.77;;;4.37;;
11004;SDS011;5555;59.622;16.556;2024-02-28T01:53:37;4.67;;;4.17;;
11004;SDS011;5555;59.622;16.556;2024-02-28T01:56:03;4.20;;;3.90;;
11004;SDS011;5555;59.622;16.556;2024-02-28T01:58:29;4.73;;;4.10;;
11004;SDS011;5555;59.622;16.556;2024-02-28T02:00:55;4.07;;;3.77;;
11004;SDS011;5555;59.622;16.556;2024-02-28T02:03:21;4.40;;;4.00;;
11004;SDS011;5555;59.622;16.556;2024-02-28T02:05:47;4.17;;;3.87;;
11004;SDS011;5555;59.622;16.556;2024-02-28T02:08:12;4.30;;;3.90;;
11004;SDS011;5555;59.622;16.556;2024-02-28T02:10:39;3.97;;;3.67;;
11004;SDS011;5555;59.622;16.556;2024-02-28T02:13:07;5.33;;;3.93;;
11004;SDS011;5555;59.622;16.556;2024-02-28T02:15:33;3.97;;;3.67;;
11004;SDS011;5555;59.622;16.556;2024-02-28T02:17:59;4.70;;;4.30;;
11004;SDS011;5555;59.622;16.556;2024-02-28T02:20:25;5.00;;;4.27;;
11004;SDS011;5555;59.622;16.556;2024-02-28T02:22:51;4.83;;;4.13;;
11004;SDS011;5555;59.622;16.556;2024-02-28T02:25:18;4.63;;;4.23;;
11004;SDS011;5555;59.622;16.556;2024-02-28T02:27:43;4.20;;;3.73;;
11004;SDS011;5555;59.622;16.556;2024-02-28T02:30:09;4.73;;;3.70;;
11004;SDS011;5555;59.622;16.556;2024-02-28T02:32:35;5.03;;;3.93;;
11004;SDS011;5555;59.622;16.556;2024-02-28T02:35:01;4.30;;;3.77;;
11004;SDS011;5555;59.622;16.556;2024-02-28T02:37:27;4.00;;;3.60;;
11004;SDS011;5555;59.622;16.556;2024-02-28T02:39:53;3.73;;;3.37;;
11004;SDS011;5555;59.622;16.556;2024-02-28T02:42:19;5.30;;;3.80;;
11004;SDS011;5555;59.622;16.556;2024-02-28T02:44:44;3.57;;;3.27;;
11004;SDS011;5555;59.622;16.556;2024-02-28T02:47:10;3.40;;;2.97;;
11004;SDS011;5555;59.622;16.556;2024-02-28T02:49:36;4.03;;;3.63;;
11004;SDS011;5555;59.622;16.556;2024-02-28T02:52:01;3.70;;;3.40;;
11004;SDS011;5555;59.622;16.556;2024-02-28T02:54:27;4.70;;;4.30;;
11004;SDS011;5555;59.622;16.556;2024-02-28T02:56:53;4.00;;;3.70;;
11004;SDS011;5555;59.622;16.556;2024-02-28T02:59:18;4.00;;;3.70;;
11004;SDS011;5555;59.622;16.556;2024-02-28T03:01:46;4.50;;;4.10;;
11004;SDS011;5555;59.622;16.556;2024-02-28T03:04:13;4.23;;;3.70;;
11004;SDS011;5555;59.622;16.556;2024-02-28T03:06:39;5.17;;;4.03;;
11004;SDS011;5555;59.622;16.556;2024-02-28T03:09:04;4.57;;;4.17;;
11004;SDS011;5555;59.622;16.556;2024-02-28T03:11:32;4.60;;;4.17;;
11004;SDS011;5555;59.622;16.556;2024-02-28T03:14:00;4.00;;;3.70;;
11004;SDS011;5555;59.622;16.556;2024-02-28T03:16:25;4.47;;;4.07;;
11004;SDS011;5555;59.622;16.556;2024-02-28T03:18:51;4.57;;;4.17;;
11004;SDS011;5555;59.622;16.556;2024-02-28T03:21:17;4.57;;;4.17;;
11004;SDS011;5555;59.622;16.556;2024-02-28T03:23:43;4.30;;;3.90;;
11004;SDS011;5555;59.622;16.556;2024-02-28T03:26:08;4.57;;;4.17;;
11004;SDS011;5555;59.622;16.556;2024-02-28T03:28:34;4.10;;;3.80;;
11004;SDS011;5555;59.622;16.556;2024-02-28T03:30:59;4.17;;;3.70;;
11004;SDS011;5555;59.622;16.556;2024-02-28T03:33:25;3.57;;;3.27;;
11004;SDS011;5555;59.622;16.556;2024-02-28T03:35:51;4.03;;;3.63;;
11004;SDS011;5555;59.622;16.556;2024-02-28T03:38:16;3.97;;;3.40;;
11004;SDS011;5555;59.622;16.556;2024-02-28T03:40:42;3.53;;;3.23;;
11004;SDS011;5555;59.622;16.556;2024-02-28T03:43:07;3.50;;;3.20;;
11004;SDS011;5555;59.622;16.556;2024-02-28T03:45:36;3.53;;;3.23;;
11004;SDS011;5555;59.622;16.556;2024-02-28T03:48:03;3.67;;;3.37;;
11004;SDS011;5555;59.622;16.556;2024-02-28T03:50:29;3.70;;;3.33;;
11004;SDS011;5555;59.622;16.556;2024-02-28T03:52:55;3.60;;;3.30;;
11004;SDS011;5555;59.622;16.556;2024-02-28T03:55:20;3.87;;;3.53;;
11004;SDS011;5555;59.622;16.556;2024-02-28T03:57:47;4.17;;;3.77;;
11004;SDS011;5555;59.622;16.556;2024-02-28T04:00:13;3.63;;;3.33;;
11004;SDS011;5555;59.622;16.556;2024-02-28T04:02:39;4.20;;;3.87;;
11004;SDS011;5555;59.622;16.556;2024-02-28T04:05:05;3.60;;;3.30;;
11004;SDS011;5555;59.622;16.556;2024-02-28T04:07:31;3.50;;;3.20;;
11004;SDS011;5555;59.622;16.556;2024-02-28T04:09:56;3.90;;;3.30;;
11004;SDS011;5555;59.622;16.556;2024-02-28T04:12:22;3.77;;;3.27;;
11004;SDS011;5555;59.622;16.556;2024-02-28T04:14:47;3.70;;;3.40;;
11004;SDS011;5555;59.622;16.556;2024-02-28T04:17:13;3.30;;;3.00;;
11004;SDS011;5555;59.622;16.556;2024-02-28T04:19:39;3.80;;;3.50;;
11004;SDS011;5555;59.622;16.556;2024-02-28T04:22:04;3.80;;;3.50;;
11004;SDS011;5555;59.622;16.556;2024-02-28T04:24:30;4.90;;;3.80;;
11004;SDS011;5555;59.622;16.556;2024-02-28T04:26:57;5.47;;;3.87;;
11004;SDS011;5555;59.622;16.556;2024-02-28T04:29:24;3.50;;;3.20;;
11004;SDS011;5555;59.622;16.556;2024-02-28T04:31:50;3.57;;;3.27;;
11004;SDS011;5555;59.622;16.556;2024-02-28T04:34:16;4.07;;;3.77;;
11004;SDS011;5555;59.622;16.556;2024-02-28T04:36:41;3.63;;;3.33;;
11004;SDS011;5555;59.622;16.556;2024-02-28T04:39:07;4.57;;;3.63;;
11004;SDS011;5555;59.622;16.556;2024-02-28T04:41:33;3.40;;;3.10;;
11004;SDS011;5555;59.622;16.556;2024-02-28T04:43:59;3.63;;;3.33;;
11004;SDS011;5555;59.622;16.556;2024-02-28T04:46:24;3.87;;;3.57;;
11004;SDS011;5555;59.622;16.556;2024-02-28T04:48:50;3.67;;;3.37;;
11004;SDS011;5555;59.622;16.556;2024-02-28T04:51:16;4.70;;;3.70;;
11004;SDS011;5555;59.622;16.556;2024-02-28T04:53:45;3.73;;;3.43;;
11004;SDS011;5555;59.622;16.556;2024-02-28T04:56:10;4.43;;;3.13;;
11004;SDS011;5555;59.622;16.556;2024-02-28T04:58:36;3.03;;;2.73;;
11004;SDS011;5555;59.622;16.556;2024-02-28T05:01:02;3.90;;;3.53;;
11004;SDS011;5555;59.622;16.556;2024-02-28T05:03:28;3.70;;;3.40;;
11004;SDS011;5555;59.622;16.556;2024-02-28T05:05:54;3.70;;;3.40;;
11004;SDS011;5555;59.622;16.556;2024-02-28T05:08:20;3.73;;;3.20;;
11004;SDS011;5555;59.622;16.556;2024-02-28T05:10:46;3.60;;;3.30;;
11004;SDS011;5555;59.622;16.556;2024-02-28T05:13:11;4.60;;;3.70;;
11004;SDS011;5555;59.622;16.556;2024-02-28T05:15:37;3.87;;;3.17;;
11004;SDS011;5555;59.622;16.556;2024-02-28T05:18:03;4.07;;;3.67;;
11004;SDS011;5555;59.622;16.556;2024-02-28T05:20:29;4.83;;;3.40;;
11004;SDS011;5555;59.622;16.556;2024-02-28T05:22:54;4.00;;;3.60;;
11004;SDS011;5555;59.622;16.556;2024-02-28T05:25:20;5.77;;;3.47;;
11004;SDS011;5555;59.622;16.556;2024-02-28T05:27:46;5.40;;;3.27;;
11004;SDS011;5555;59.622;16.556;2024-02-28T05:30:11;3.20;;;2.90;;
11004;SDS011;5555;59.622;16.556;2024-02-28T05:32:37;3.37;;;2.83;;
11004;SDS011;5555;59.622;16.556;2024-02-28T05:35:03;3.30;;;2.93;;
11004;SDS011;5555;59.622;16.556;2024-02-28T05:37:29;7.10;;;3.40;;
11004;SDS011;5555;59.622;16.556;2024-02-28T05:39:54;4.97;;;3.47;;
11004;SDS011;5555;59.622;16.556;2024-02-28T05:42:20;3.70;;;3.00;;
11004;SDS011;5555;59.622;16.556;2024-02-28T05:44:49;4.50;;;3.50;;
11004;SDS011;5555;59.622;16.556;2024-02-28T05:47:15;4.87;;;3.40;;
11004;SDS011;5555;59.622;16.556;2024-02-28T05:49:41;6.20;;;3.73;;
11004;SDS011;5555;59.622;16.556;2024-02-28T05:52:06;4.17;;;3.20;;
11004;SDS011;5555;59.622;16.556;2024-02-28T05:54:32;2.90;;;2.70;;
11004;SDS011;5555;59.622;16.556;2024-02-28T05:56:59;3.30;;;2.90;;
11004;SDS011;5555;59.622;16.556;2024-02-28T05:59:25;4.37;;;3.30;;
11004;SDS011;5555;59.622;16.556;2024-02-28T06:01:51;8.57;;;3.53;;
11004;SDS011;5555;59.622;16.556;2024-02-28T06:04:17;4.47;;;3.07;;
11004;SDS011;5555;59.622;16.556;2024-02-28T06:06:42;2.90;;;2.70;;
11004;SDS011;5555;59.622;16.556;2024-02-28T06:09:08;3.23;;;2.93;;
11004;SDS011;5555;59.622;16.556;2024-02-28T06:11:34;2.90;;;2.70;;
11004;SDS011;5555;59.622;16.556;2024-02-28T06:14:00;3.87;;;3.17;;
11004;SDS011;5555;59.622;16.556;2024-02-28T06:16:27;3.77;;;2.53;;
11004;SDS011;5555;59.622;16.556;2024-02-28T06:18:53;3.03;;;2.73;;
11004;SDS011;5555;59.622;16.556;2024-02-28T06:21:21;6.70;;;2.73;;
11004;SDS011;5555;59.622;16.556;2024-02-28T06:23:47;5.37;;;2.60;;
11004;SDS011;5555;59.622;16.556;2024-02-28T06:26:13;3.50;;;2.80;;
11004;SDS011;5555;59.622;16.556;2024-02-28T06:28:42;6.60;;;2.80;;
11004;SDS011;5555;59.622;16.556;2024-02-28T06:31:17;3.63;;;2.90;;
11004;SDS011;5555;59.622;16.556;2024-02-28T06:33:45;4.37;;;2.67;;
11004;SDS011;5555;59.622;16.556;2024-02-28T06:36:11;3.97;;;3.40;;
11004;SDS011;5555;59.622;16.556;2024-02-28T06:38:37;5.00;;;2.87;;
11004;SDS011;5555;59.622;16.556;2024-02-28T06:41:03;4.23;;;3.43;;
11004;SDS011;5555;59.622;16.556;2024-02-28T06:43:29;3.73;;;2.90;;
11004;SDS011;5555;59.622;16.556;2024-02-28T06:45:57;8.17;;;2.97;;
11004;SDS011;5555;59.622;16.556;2024-02-28T06:48:23;3.97;;;3.23;;
11004;SDS011;5555;59.622;16.556;2024-02-28T06:50:49;2.93;;;2.73;;
11004;SDS011;5555;59.622;16.556;2024-02-28T06:53:14;5.03;;;3.10;;
11004;SDS011;5555;59.622;16.556;2024-02-28T06:55:40;4.03;;;2.90;;
11004;SDS011;5555;59.622;16.556;2024-02-28T06:58:05;4.97;;;3.43;;
11004;SDS011;5555;59.622;16.556;2024-02-28T07:00:31;3.57;;;3.27;;
11004;SDS011;5555;59.622;16.556;2024-02-28T07:02:57;4.37;;;3.30;;
11004;SDS011;5555;59.622;16.556;2024-02-28T07:05:22;3.87;;;3.30;;
11004;SDS011;5555;59.622;16.556;2024-02-28T07:07:49;4.73;;;3.57;;
11004;SDS011;5555;59.622;16.556;2024-02-28T07:10:14;5.87;;;4.13;;
11004;SDS011;5555;59.622;16.556;2024-02-28T07:12:41;4.37;;;3.27;;
11004;SDS011;5555;59.622;16.556;2024-02-28T07:15:07;4.33;;;3.03;;
11004;SDS011;5555;59.622;16.556;2024-02-28T07:17:32;4.10;;;3.70;;
11004;SDS011;5555;59.622;16.556;2024-02-28T07:19:58;5.80;;;3.40;;
11004;SDS011;5555;59.622;16.556;2024-02-28T07:22:24;4.90;;;3.40;;
11004;SDS011;5555;59.622;16.556;2024-02-28T07:24:50;4.87;;;3.20;;
11004;SDS011;5555;59.622;16.556;2024-02-28T07:27:15;9.70;;;3.70;;
11004;SDS011;5555;59.622;16.556;2024-02-28T07:29:41;5.63;;;3.30;;
11004;SDS011;5555;59.622;16.556;2024-02-28T07:32:07;4.83;;;4.00;;
11004;SDS011;5555;59.622;16.556;2024-02-28T07:34:32;4.00;;;3.60;;
11004;SDS011;5555;59.622;16.556;2024-02-28T07:36:59;5.70;;;3.30;;
11004;SDS011;5555;59.622;16.556;2024-02-28T07:39:24;5.80;;;3.73;;
11004;SDS011;5555;59.622;16.556;2024-02-28T07:41:50;4.23;;;3.73;;
11004;SDS011;5555;59.622;16.556;2024-02-28T07:44:16;3.87;;;3.57;;
11004;SDS011;5555;59.622;16.556;2024-02-28T07:46:42;3.50;;;2.90;;
11004;SDS011;5555;59.622;16.556;2024-02-28T07:49:07;3.83;;;3.03;;
11004;SDS011;5555;59.622;16.556;2024-02-28T07:51:33;7.17;;;3.07;;
11004;SDS011;5555;59.622;16.556;2024-02-28T07:53:59;3.13;;;2.83;;
11004;SDS011;5555;59.622;16.556;2024-02-28T07:56:24;3.30;;;3.00;;
11004;SDS011;5555;59.622;16.556;2024-02-28T07:58:50;3.30;;;2.77;;
11004;SDS011;5555;59.622;16.556;2024-02-28T08:01:16;4.57;;;2.50;;
11004;SDS011;5555;59.622;16.556;2024-02-28T08:03:42;5.30;;;2.87;;
11004;SDS011;5555;59.622;16.556;2024-02-28T08:06:08;3.83;;;2.90;;
11004;SDS011;5555;59.622;16.556;2024-02-28T08:08:34;4.70;;;3.07;;
11004;SDS011;5555;59.622;16.556;2024-02-28T08:11:00;4.77;;;2.87;;
11004;SDS011;5555;59.622;16.556;2024-02-28T08:13:26;4.60;;;2.73;;
11004;SDS011;5555;59.622;16.556;2024-02-28T08:15:55;4.60;;;3.23;;
11004;SDS011;5555;59.622;16.556;2024-02-28T08:18:20;4.23;;;3.37;;
11004;SDS011;5555;59.622;16.556;2024-02-28T08:20:46;3.43;;;3.13;;
11004;SDS011;5555;59.622;16.556;2024-02-28T08:23:12;3.67;;;2.97;;
11004;SDS011;5555;59.622;16.556;2024-02-28T08:25:37;4.97;;;3.57;;
11004;SDS011;5555;59.622;16.556;2024-02-28T08:28:03;5.00;;;3.30;;
11004;SDS011;5555;59.622;16.556;2024-02-28T08:30:29;4.30;;;3.37;;
11004;SDS011;5555;59.622;16.556;2024-02-28T08:32:56;3.90;;;3.10;;
11004;SDS011;5555;59.622;16.556;2024-02-28T08:35:23;3.60;;;3.07;;
11004;SDS011;5555;59.622;16.556;2024-02-28T08:37:48;4.47;;;3.10;;
11004;SDS011;5555;59.622;16.556;2024-02-28T08:40:14;3.70;;;3.40;;
11004;SDS011;5555;59.622;16.556;2024-02-28T08:42:40;7.83;;;3.53;;
11004;SDS011;5555;59.622;16.556;2024-02-28T08:45:06;3.27;;;2.97;;
11004;SDS011;5555;59.622;16.556;2024-02-28T08:47:33;4.30;;;3.03;;
11004;SDS011;5555;59.622;16.556;2024-02-28T08:49:58;4.50;;;3.07;;
11004;SDS011;5555;59.622;16.556;2024-02-28T08:52:24;7.83;;;2.97;;
11004;SDS011;5555;59.622;16.556;2024-02-28T08:54:50;5.37;;;2.80;;
11004;SDS011;5555;59.622;16.556;2024-02-28T08:57:16;3.20;;;2.90;;
11004;SDS011;5555;59.622;16.556;2024-02-28T08:59:41;3.40;;;3.10;;
11004;SDS011;5555;59.622;16.556;2024-02-28T09:02:07;3.30;;;2.83;;
11004;SDS011;5555;59.622;16.556;2024-02-28T09:04:33;5.57;;;2.97;;
11004;SDS011;5555;59.622;16.556;2024-02-28T09:06:59;7.17;;;3.20;;
11004;SDS011;5555;59.622;16.556;2024-02-28T09:09:25;6.73;;;3.30;;
11004;SDS011;5555;59.622;16.556;2024-02-28T09:11:51;3.87;;;2.90;;
11004;SDS011;5555;59.622;16.556;2024-02-28T09:14:16;2.93;;;2.63;;
11004;SDS011;5555;59.622;16.556;2024-02-28T09:16:42;3.00;;;2.67;;
11004;SDS011;5555;59.622;16.556;2024-02-28T09:19:08;4.77;;;2.37;;
11004;SDS011;5555;59.622;16.556;2024-02-28T09:21:33;2.80;;;2.50;;
11004;SDS011;5555;59.622;16.556;2024-02-28T09:23:59;3.60;;;2.77;;
11004;SDS011;5555;59.622;16.556;2024-02-28T09:26:26;2.93;;;2.50;;
11004;SDS011;5555;59.622;16.556;2024-02-28T09:28:52;6.47;;;2.80;;
11004;SDS011;5555;59.622;16.556;2024-02-28T09:31:17;3.50;;;2.93;;
11004;SDS011;5555;59.622;16.556;2024-02-28T09:33:43;4.43;;;2.90;;
11004;SDS011;5555;59.622;16.556;2024-02-28T09:36:11;3.10;;;2.80;;
11004;SDS011;5555;59.622;16.556;2024-02-28T09:38:37;4.47;;;2.87;;
11004;SDS011;5555;59.622;16.556;2024-02-28T09:41:03;3.70;;;3.07;;
11004;SDS011;5555;59.622;16.556;2024-02-28T09:43:34;3.27;;;2.70;;
11004;SDS011;5555;59.622;16.556;2024-02-28T09:46:05;5.47;;;3.40;;
11004;SDS011;5555;59.622;16.556;2024-02-28T09:48:36;3.83;;;3.10;;
11004;SDS011;5555;59.622;16.556;2024-02-28T09:51:04;4.10;;;2.80;;
11004;SDS011;5555;59.622;16.556;2024-02-28T09:53:31;4.60;;;2.90;;
11004;SDS011;5555;59.622;16.556;2024-02-28T09:55:56;4.83;;;2.50;;
11004;SDS011;5555;59.622;16.556;2024-02-28T09:58:23;4.93;;;2.90;;
11004;SDS011;5555;59.622;16.556;2024-02-28T10:00:50;4.43;;;2.57;;
11004;SDS011;5555;59.622;16.556;2024-02-28T10:03:20;4.37;;;2.93;;
11004;SDS011;5555;59.622;16.556;2024-02-28T10:05:47;3.43;;;3.07;;
11004;SDS011;5555;59.622;16.556;2024-02-28T10:08:13;5.40;;;3.17;;
11004;SDS011;5555;59.622;16.556;2024-02-28T10:10:46;4.80;;;3.50;;
11004;SDS011;5555;59.622;16.556;2024-02-28T10:13:12;5.67;;;3.53;;
11004;SDS011;5555;59.622;16.556;2024-02-28T10:15:38;6.77;;;4.40;;
11004;SDS011;5555;59.622;16.556;2024-02-28T10:18:04;4.23;;;3.63;;
11004;SDS011;5555;59.622;16.556;2024-02-28T10:20:30;4.17;;;3.87;;
11004;SDS011;5555;59.622;16.556;2024-02-28T10:22:56;4.33;;;3.87;;
11004;SDS011;5555;59.622;16.556;2024-02-28T10:25:22;4.97;;;4.50;;
11004;SDS011;5555;59.622;16.556;2024-02-28T10:27:48;4.97;;;4.50;;
11004;SDS011;5555;59.622;16.556;2024-02-28T10:30:14;5.20;;;4.63;;
11004;SDS011;5555;59.622;16.556;2024-02-28T10:32:51;5.37;;;4.87;;
11004;SDS011;5555;59.622;16.556;2024-02-28T10:35:17;4.90;;;4.50;;
11004;SDS011;5555;59.622;16.556;2024-02-28T10:37:50;4.97;;;4.57;;
11004;SDS011;5555;59.622;16.556;2024-02-28T10:40:17;4.77;;;4.47;;
11004;SDS011;5555;59.622;16.556;2024-02-28T10:42:43;5.20;;;4.80;;
11004;SDS011;5555;59.622;16.556;2024-02-28T10:45:12;6.33;;;4.87;;
11004;SDS011;5555;59.622;16.556;2024-02-28T10:47:40;5.33;;;4.93;;
11004;SDS011;5555;59.622;16.556;2024-02-28T10:50:06;5.87;;;5.37;;
11004;SDS011;5555;59.622;16.556;2024-02-28T10:52:33;5.43;;;4.93;;
11004;SDS011;5555;59.622;16.556;2024-02-28T10:54:59;6.30;;;5.80;;
11004;SDS011;5555;59.622;16.556;2024-02-28T10:57:26;6.57;;;5.97;;
11004;SDS011;5555;59.622;16.556;2024-02-28T10:59:53;6.03;;;5.53;;
11004;SDS011;5555;59.622;16.556;2024-02-28T11:02:20;6.03;;;5.50;;
11004;SDS011;5555;59.622;16.556;2024-02-28T11:04:46;5.93;;;5.33;;
11004;SDS011;5555;59.622;16.556;2024-02-28T11:07:18;5.83;;;5.33;;
11004;SDS011;5555;59.622;16.556;2024-02-28T11:09:45;6.07;;;5.50;;
11004;SDS011;5555;59.622;16.556;2024-02-28T11:12:32;6.87;;;6.17;;
11004;SDS011;5555;59.622;16.556;2024-02-28T11:14:58;6.07;;;5.47;;
11004;SDS011;5555;59.622;16.556;2024-02-28T11:17:30;5.10;;;4.60;;
11004;SDS011;5555;59.622;16.556;2024-02-28T11:19:57;6.13;;;5.60;;
11004;SDS011;5555;59.622;16.556;2024-02-28T11:22:22;9.40;;;6.00;;
11004;SDS011;5555;59.622;16.556;2024-02-28T11:24:48;5.90;;;5.30;;
11004;SDS011;5555;59.622;16.556;2024-02-28T11:27:18;6.27;;;5.67;;
11004;SDS011;5555;59.622;16.556;2024-02-28T11:29:44;10.40;;;4.83;;
11004;SDS011;5555;59.622;16.556;2024-02-28T11:32:12;5.37;;;4.97;;
11004;SDS011;5555;59.622;16.556;2024-02-28T11:34:39;5.37;;;4.97;;
11004;SDS011;5555;59.622;16.556;2024-02-28T11:37:08;5.73;;;5.23;;
11004;SDS011;5555;59.622;16.556;2024-02-28T11:39:34;5.73;;;4.53;;
11004;SDS011;5555;59.622;16.556;2024-02-28T11:42:12;5.30;;;4.90;;
11004;SDS011;5555;59.622;16.556;2024-02-28T11:44:40;4.87;;;4.40;;
11004;SDS011;5555;59.622;16.556;2024-02-28T11:47:08;4.53;;;4.13;;
11004;SDS011;5555;59.622;16.556;2024-02-28T11:49:36;5.10;;;4.60;;
11004;SDS011;5555;59.622;16.556;2024-02-28T11:52:02;5.03;;;4.40;;
11004;SDS011;5555;59.622;16.556;2024-02-28T11:54:29;5.10;;;4.23;;
11004;SDS011;5555;59.622;16.556;2024-02-28T11:56:55;4.93;;;4.43;;
11004;SDS011;5555;59.622;16.556;2024-02-28T11:59:20;5.63;;;4.43;;
11004;SDS011;5555;59.622;16.556;2024-02-28T12:01:46;4.53;;;4.13;;
11004;SDS011;5555;59.622;16.556;2024-02-28T12:04:12;4.80;;;4.33;;
11004;SDS011;5555;59.622;16.556;2024-02-28T12:06:38;4.90;;;4.50;;
11004;SDS011;5555;59.622;16.556;2024-02-28T12:09:08;4.77;;;4.37;;
11004;SDS011;5555;59.622;16.556;2024-02-28T12:11:36;4.03;;;3.73;;
11004;SDS011;5555;59.622;16.556;2024-02-28T12:14:03;4.40;;;4.10;;
11004;SDS011;5555;59.622;16.556;2024-02-28T12:16:32;4.47;;;4.07;;
11004;SDS011;5555;59.622;16.556;2024-02-28T12:18:57;5.13;;;4.63;;
11004;SDS011;5555;59.622;16.556;2024-02-28T12:21:23;5.50;;;5.00;;
11004;SDS011;5555;59.622;16.556;2024-02-28T12:23:49;5.27;;;4.77;;
11004;SDS011;5555;59.622;16.556;2024-02-28T12:26:18;5.47;;;4.93;;
11004;SDS011;5555;59.622;16.556;2024-02-28T12:28:45;5.53;;;5.00;;
11004;SDS011;5555;59.622;16.556;2024-02-28T12:31:11;5.07;;;4.67;;
11004;SDS011;5555;59.622;16.556;2024-02-28T12:33:38;6.03;;;5.20;;
11004;SDS011;5555;59.622;16.556;2024-02-28T12:36:04;6.97;;;5.53;;
11004;SDS011;5555;59.622;16.556;2024-02-28T12:38:30;5.93;;;5.10;;
11004;SDS011;5555;59.622;16.556;2024-02-28T12:40:56;5.20;;;4.73;;
11004;SDS011;5555;59.622;16.556;2024-02-28T12:43:22;6.00;;;5.40;;
11004;SDS011;5555;59.622;16.556;2024-02-28T12:45:49;5.60;;;5.10;;
11004;SDS011;5555;59.622;16.556;2024-02-28T12:48:14;5.37;;;4.80;;
11004;SDS011;5555;59.622;16.556;2024-02-28T12:50:40;6.93;;;4.80;;
11004;SDS011;5555;59.622;16.556;2024-02-28T12:53:05;5.73;;;4.60;;
11004;SDS011;5555;59.622;16.556;2024-02-28T12:55:31;5.17;;;4.67;;
11004;SDS011;5555;59.622;16.556;2024-02-28T12:57:57;4.80;;;4.40;;
11004;SDS011;5555;59.622;16.556;2024-02-28T13:00:24;5.47;;;5.00;;
11004;SDS011;5555;59.622;16.556;2024-02-28T13:02:50;5.00;;;4.60;;
11004;SDS011;5555;59.622;16.556;2024-02-28T13:05:16;5.53;;;5.03;;
11004;SDS011;5555;59.622;16.556;2024-02-28T13:07:41;5.30;;;4.80;;
11004;SDS011;5555;59.622;16.556;2024-02-28T13:10:07;7.93;;;4.90;;
11004;SDS011;5555;59.622;16.556;2024-02-28T13:12:34;5.60;;;5.17;;
11004;SDS011;5555;59.622;16.556;2024-02-28T13:15:00;6.83;;;5.10;;
11004;SDS011;5555;59.622;16.556;2024-02-28T13:17:25;5.53;;;4.90;;
11004;SDS011;5555;59.622;16.556;2024-02-28T13:19:51;6.87;;;5.00;;
11004;SDS011;5555;59.622;16.556;2024-02-28T13:22:17;5.97;;;5.10;;
11004;SDS011;5555;59.622;16.556;2024-02-28T13:24:42;4.93;;;4.53;;
11004;SDS011;5555;59.622;16.556;2024-02-28T13:27:08;6.20;;;4.50;;
11004;SDS011;5555;59.622;16.556;2024-02-28T13:29:36;6.80;;;5.37;;
11004;SDS011;5555;59.622;16.556;2024-02-28T13:32:02;7.67;;;5.03;;
11004;SDS011;5555;59.622;16.556;2024-02-28T13:34:28;5.60;;;3.50;;
11004;SDS011;5555;59.622;16.556;2024-02-28T13:36:54;5.93;;;5.00;;
11004;SDS011;5555;59.622;16.556;2024-02-28T13:39:20;5.47;;;4.97;;
11004;SDS011;5555;59.622;16.556;2024-02-28T13:41:48;7.10;;;5.00;;
11004;SDS011;5555;59.622;16.556;2024-02-28T13:44:17;7.17;;;5.73;;
11004;SDS011;5555;59.622;16.556;2024-02-28T13:46:44;7.67;;;5.37;;
11004;SDS011;5555;59.622;16.556;2024-02-28T13:49:14;6.00;;;5.37;;
11004;SDS011;5555;59.622;16.556;2024-02-28T13:51:41;6.37;;;5.63;;
11004;SDS011;5555;59.622;16.556;2024-02-28T13:54:08;6.20;;;5.50;;
11004;SDS011;5555;59.622;16.556;2024-02-28T13:56:33;6.40;;;5.90;;
11004;SDS011;5555;59.622;16.556;2024-02-28T13:58:59;6.37;;;5.77;;
11004;SDS011;5555;59.622;16.556;2024-02-28T14:01:25;6.27;;;5.13;;
11004;SDS011;5555;59.622;16.556;2024-02-28T14:03:51;8.60;;;5.40;;
11004;SDS011;5555;59.622;16.556;2024-02-28T14:06:16;6.00;;;5.50;;
11004;SDS011;5555;59.622;16.556;2024-02-28T14:08:42;5.90;;;5.40;;
11004;SDS011;5555;59.622;16.556;2024-02-28T14:11:08;5.67;;;5.17;;
11004;SDS011;5555;59.622;16.556;2024-02-28T14:13:33;5.70;;;5.20;;
11004;SDS011;5555;59.622;16.556;2024-02-28T14:15:59;5.90;;;5.30;;
11004;SDS011;5555;59.622;16.556;2024-02-28T14:18:25;6.30;;;5.70;;
11004;SDS011;5555;59.622;16.556;2024-02-28T14:20:50;5.57;;;5.07;;
11004;SDS011;5555;59.622;16.556;2024-02-28T14:23:16;6.60;;;6.03;;
11004;SDS011;5555;59.622;16.556;2024-02-28T14:25:42;6.70;;;5.30;;
11004;SDS011;5555;59.622;16.556;2024-02-28T14:28:08;5.77;;;5.17;;
11004;SDS011;5555;59.622;16.556;2024-02-28T14:30:34;6.20;;;5.27;;
11004;SDS011;5555;59.622;16.556;2024-02-28T14:33:00;6.03;;;5.43;;
11004;SDS011;5555;59.622;16.556;2024-02-28T14:35:25;6.33;;;5.60;;
11004;SDS011;5555;59.622;16.556;2024-02-28T14:37:51;5.83;;;5.27;;
11004;SDS011;5555;59.622;16.556;2024-02-28T14:40:17;5.67;;;5.17;;
11004;SDS011;5555;59.622;16.556;2024-02-28T14:42:43;5.70;;;5.13;;